OYATS EDDG-ZZZZ
Flight info
| Callsign | OYATS |
|---|---|
| Flight time | N/A |
| Altitude | 0 |
| Route | |
| Aircraft |
Departure
| Time | 2026-05-07 17:05 |
|---|---|
| Airport | Münster Osnabrück Airport (EDDG) |
Arrival
| Time | N/A |
|---|---|
| Airport | ZZZZ |
| Time | Latitude | Longitude | Altitude | Speed | Heading |
|---|---|---|---|---|---|
| 2026-05-07 17:05 | 52.02975 | 7.67739 | 1147 ft | 114 kts | 189° |
| 2026-05-07 17:05 | 52.02202 | 7.67453 | 1148 ft | 112 kts | 189° |
| 2026-05-07 17:05 | 52.01449 | 7.67162 | 1130 ft | 112 kts | 189° |
| 2026-05-07 17:05 | 52.00691 | 7.66860 | 1114 ft | 112 kts | 189° |
| 2026-05-07 17:06 | 51.99920 | 7.66548 | 1079 ft | 115 kts | 190° |
| 2026-05-07 17:06 | 51.99156 | 7.66240 | 1120 ft | 113 kts | 189° |
| 2026-05-07 17:06 | 51.98403 | 7.65895 | 1226 ft | 110 kts | 190° |
| 2026-05-07 17:06 | 51.97657 | 7.65676 | 1284 ft | 111 kts | 180° |
| 2026-05-07 17:07 | 51.96880 | 7.65611 | 1330 ft | 112 kts | 176° |
| 2026-05-07 17:07 | 51.96106 | 7.65558 | 1396 ft | 112 kts | 178° |
| 2026-05-07 17:07 | 51.95336 | 7.65396 | 1463 ft | 113 kts | 185° |
| 2026-05-07 17:07 | 51.94557 | 7.65201 | 1518 ft | 112 kts | 180° |
| 2026-05-07 17:08 | 51.93784 | 7.65029 | 1570 ft | 112 kts | 185° |
| 2026-05-07 17:08 | 51.93012 | 7.64802 | 1572 ft | 113 kts | 181° |
| 2026-05-07 17:08 | 51.92234 | 7.64686 | 1610 ft | 111 kts | 179° |
| 2026-05-07 17:08 | 51.91457 | 7.64529 | 1617 ft | 114 kts | 186° |
| 2026-05-07 17:09 | 51.90693 | 7.64206 | 1663 ft | 113 kts | 191° |
| 2026-05-07 17:09 | 51.89943 | 7.63754 | 1659 ft | 117 kts | 198° |
| 2026-05-07 17:09 | 51.89197 | 7.63273 | 1714 ft | 114 kts | 198° |
| 2026-05-07 17:09 | 51.88468 | 7.62731 | 1705 ft | 117 kts | 201° |
| 2026-05-07 17:10 | 51.87735 | 7.62114 | 1733 ft | 117 kts | 207° |
| 2026-05-07 17:10 | 51.87076 | 7.61376 | 1820 ft | 112 kts | 210° |
| 2026-05-07 17:10 | 51.86357 | 7.60866 | 1825 ft | 115 kts | 193° |
| 2026-05-07 17:10 | 51.85601 | 7.60452 | 1876 ft | 114 kts | 197° |
| 2026-05-07 17:11 | 51.84864 | 7.59998 | 1907 ft | 114 kts | 187° |
| 2026-05-07 17:11 | 51.84089 | 7.60054 | 1945 ft | 109 kts | 161° |
| 2026-05-07 17:11 | 51.83331 | 7.60280 | 1966 ft | 110 kts | 166° |
| 2026-05-07 17:11 | 51.82562 | 7.60471 | 1912 ft | 113 kts | 162° |
| 2026-05-07 17:12 | 51.81833 | 7.60868 | 1912 ft | 107 kts | 153° |
| 2026-05-07 17:12 | 51.81112 | 7.61214 | 1888 ft | 109 kts | 159° |
| 2026-05-07 17:12 | 51.80396 | 7.61566 | 1889 ft | 107 kts | 157° |
| 2026-05-07 17:12 | 51.79662 | 7.61869 | 1864 ft | 110 kts | 163° |
| 2026-05-07 17:13 | 51.78922 | 7.62105 | 1891 ft | 106 kts | 162° |
| 2026-05-07 17:13 | 51.78196 | 7.62333 | 1920 ft | 105 kts | 162° |
| 2026-05-07 17:13 | 51.77481 | 7.62544 | 1954 ft | 103 kts | 163° |
| 2026-05-07 17:13 | 51.76791 | 7.62732 | 2037 ft | 99 kts | 164° |
| 2026-05-07 17:14 | 51.76085 | 7.62944 | 2006 ft | 105 kts | 163° |
| 2026-05-07 17:14 | 51.75367 | 7.63100 | 2060 ft | 103 kts | 166° |
| 2026-05-07 17:14 | 51.74667 | 7.63255 | 2107 ft | 101 kts | 166° |
| 2026-05-07 17:14 | 51.73926 | 7.63377 | 1995 ft | 115 kts | 168° |
| 2026-05-07 17:15 | 51.73133 | 7.63478 | 2012 ft | 110 kts | 173° |
| 2026-05-07 17:15 | 51.72350 | 7.63436 | 1927 ft | 115 kts | 177° |
| 2026-05-07 17:15 | 51.71569 | 7.63395 | 1966 ft | 110 kts | 175° |
| 2026-05-07 17:15 | 51.70815 | 7.63372 | 1959 ft | 110 kts | 176° |
| 2026-05-07 17:16 | 51.70043 | 7.63353 | 1962 ft | 109 kts | 174° |